PWSweather.com
Personal Weather Stations
Station Observations
KOHCLEVE171
Cleveland, OH

Cleveland, OH

Lat: 41.48646164, Lon: -81.46408081

Elevation: 1059

Station Type:

High Low Average
Temperature 44.8°F7.1°C 29.8°F-1.2°C 37.4°F3.0°C
Dew Point 39.9°F4.4°C 23.2°F-4.9°C 31.7°F-0.2°C
Winds 8.3 mph 13.4 kmh Calm Calm 3.0 mph SSE4.8 kmh SSE
Wind Gusts 13.2 mph21.2 kmh -- 5.0 mph8.0 kmh
Humidity 94% 68% 80%
Pressure 30.45 in1031.2 mb 29.74 in1007.1 mb -
Precipitation 0.00 in0.0 mm - -
Hour Temp Dew Point Humidity Winds Wind Gusts Pressure Precip Precip Rate Daily Precip Total
12:04 AM 31.6°F-0.2°C 25.9°F-3.4°C 79% Calm Calm -- 30.47 in1031.8 mb 0.00 in0.0 mm 0.00 in0.0 mm 0.00 in0.0 mm
12:09 AM 31.6°F-0.2°C 25.9°F-3.4°C 79% 0.9 mph S1.4 kmh S 1.1 mph1.8 kmh 30.48 in1032.2 mb 0.00 in0.0 mm 0.00 in0.0 mm 0.00 in0.0 mm
12:14 AM 31.5°F-0.3°C 25.7°F-3.5°C 79% 1.1 mph SSE1.8 kmh SSE 1.3 mph2.1 kmh 30.48 in1032.2 mb 0.00 in0.0 mm 0.00 in0.0 mm 0.00 in0.0 mm
12:19 AM 31.3°F-0.4°C 25.5°F-3.6°C 79% 1.1 mph SSE1.8 kmh SSE 1.3 mph2.1 kmh 30.47 in1031.8 mb 0.00 in0.0 mm 0.00 in0.0 mm 0.00 in0.0 mm
12:24 AM 31.5°F-0.3°C 25.7°F-3.5°C 79% 0.7 mph S1.1 kmh S 1.1 mph1.8 kmh 30.47 in1031.8 mb 0.00 in0.0 mm 0.00 in0.0 mm 0.00 in0.0 mm
12:29 AM 31.3°F-0.4°C 25.5°F-3.6°C 79% 1.1 mph S1.8 kmh S 1.1 mph1.8 kmh 30.47 in1031.8 mb 0.00 in0.0 mm 0.00 in0.0 mm 0.00 in0.0 mm
12:34 AM 31.3°F-0.4°C 25.5°F-3.6°C 79% 0.7 mph S1.1 kmh S 0.9 mph1.4 kmh 30.46 in1031.5 mb 0.00 in0.0 mm 0.00 in0.0 mm 0.00 in0.0 mm
12:39 AM 31.1°F-0.5°C 25.3°F-3.7°C 79% 0.4 mph SSE0.6 kmh SSE 0.9 mph1.4 kmh 30.46 in1031.5 mb 0.00 in0.0 mm 0.00 in0.0 mm 0.00 in0.0 mm
12:44 AM 31.1°F-0.5°C 25.7°F-3.5°C 80% 1.1 mph ESE1.8 kmh ESE 1.3 mph2.1 kmh 30.45 in1031.2 mb 0.00 in0.0 mm 0.00 in0.0 mm 0.00 in0.0 mm
12:49 AM 31.1°F-0.5°C 25.7°F-3.5°C 80% Calm Calm -- 30.45 in1031.2 mb 0.00 in0.0 mm 0.00 in0.0 mm 0.00 in0.0 mm
12:54 AM 31.1°F-0.5°C 25.7°F-3.5°C 80% 0.7 mph SSE1.1 kmh SSE 1.1 mph1.8 kmh 30.45 in1031.2 mb 0.00 in0.0 mm 0.00 in0.0 mm 0.00 in0.0 mm
01:04 AM 30.6°F-0.8°C 25.2°F-3.8°C 80% 0.9 mph S1.4 kmh S 1.1 mph1.8 kmh 30.45 in1031.2 mb 0.00 in0.0 mm 0.00 in0.0 mm 0.00 in0.0 mm
01:09 AM 30.6°F-0.8°C 25.2°F-3.8°C 80% 1.1 mph S1.8 kmh S 1.3 mph2.1 kmh 30.45 in1031.2 mb 0.00 in0.0 mm 0.00 in0.0 mm 0.00 in0.0 mm
01:14 AM 30.7°F-0.7°C 25.3°F-3.7°C 80% 0.7 mph S1.1 kmh S 0.9 mph1.4 kmh 30.44 in1030.8 mb 0.00 in0.0 mm 0.00 in0.0 mm 0.00 in0.0 mm
01:19 AM 30.9°F-0.6°C 25.5°F-3.6°C 80% 0.4 mph WSW0.6 kmh WSW 1.1 mph1.8 kmh 30.44 in1030.8 mb 0.00 in0.0 mm 0.00 in0.0 mm 0.00 in0.0 mm
01:24 AM 31.1°F-0.5°C 25.7°F-3.5°C 80% 0.4 mph SSE0.6 kmh SSE 0.9 mph1.4 kmh 30.44 in1030.8 mb 0.00 in0.0 mm 0.00 in0.0 mm 0.00 in0.0 mm
01:29 AM 31.1°F-0.5°C 25.3°F-3.7°C 79% 0.7 mph SE1.1 kmh SE 1.3 mph2.1 kmh 30.44 in1030.8 mb 0.00 in0.0 mm 0.00 in0.0 mm 0.00 in0.0 mm
01:34 AM 30.9°F-0.6°C 25.2°F-3.8°C 79% 0.9 mph SSE1.4 kmh SSE 1.3 mph2.1 kmh 30.44 in1030.8 mb 0.00 in0.0 mm 0.00 in0.0 mm 0.00 in0.0 mm
01:39 AM 30.7°F-0.7°C 24.6°F-4.1°C 78% 0.9 mph SSE1.4 kmh SSE 1.3 mph2.1 kmh 30.43 in1030.5 mb 0.00 in0.0 mm 0.00 in0.0 mm 0.00 in0.0 mm
01:44 AM 30.7°F-0.7°C 25.0°F-3.9°C 79% 0.7 mph S1.1 kmh S 1.1 mph1.8 kmh 30.43 in1030.5 mb 0.00 in0.0 mm 0.00 in0.0 mm 0.00 in0.0 mm
01:49 AM 30.9°F-0.6°C 25.2°F-3.8°C 79% 0.7 mph SSE1.1 kmh SSE 0.9 mph1.4 kmh 30.43 in1030.5 mb 0.00 in0.0 mm 0.00 in0.0 mm 0.00 in0.0 mm
01:54 AM 30.7°F-0.7°C 24.6°F-4.1°C 78% 0.9 mph SE1.4 kmh SE 1.1 mph1.8 kmh 30.43 in1030.5 mb 0.00 in0.0 mm 0.00 in0.0 mm 0.00 in0.0 mm
01:59 AM 30.7°F-0.7°C 25.0°F-3.9°C 79% 0.4 mph SE0.6 kmh SE 1.3 mph2.1 kmh 30.43 in1030.5 mb 0.00 in0.0 mm 0.00 in0.0 mm 0.00 in0.0 mm
02:04 AM 30.9°F-0.6°C 24.8°F-4.0°C 78% 1.6 mph SE2.6 kmh SE 1.8 mph2.9 kmh 30.42 in1030.1 mb 0.00 in0.0 mm 0.00 in0.0 mm 0.00 in0.0 mm
02:09 AM 30.9°F-0.6°C 25.2°F-3.8°C 79% Calm Calm -- 30.42 in1030.1 mb 0.00 in0.0 mm 0.00 in0.0 mm 0.00 in0.0 mm
02:14 AM 30.9°F-0.6°C 24.8°F-4.0°C 78% 0.7 mph S1.1 kmh S 1.1 mph1.8 kmh 30.42 in1030.1 mb 0.00 in0.0 mm 0.00 in0.0 mm 0.00 in0.0 mm
02:19 AM 30.9°F-0.6°C 24.8°F-4.0°C 78% 0.9 mph SE1.4 kmh SE 1.6 mph2.6 kmh 30.42 in1030.1 mb 0.00 in0.0 mm 0.00 in0.0 mm 0.00 in0.0 mm
02:24 AM 30.9°F-0.6°C 24.8°F-4.0°C 78% 0.7 mph SSE1.1 kmh SSE 1.3 mph2.1 kmh 30.41 in1029.8 mb 0.00 in0.0 mm 0.00 in0.0 mm 0.00 in0.0 mm
02:29 AM 30.9°F-0.6°C 24.8°F-4.0°C 78% 1.1 mph S1.8 kmh S 1.3 mph2.1 kmh 30.41 in1029.8 mb 0.00 in0.0 mm 0.00 in0.0 mm 0.00 in0.0 mm
02:34 AM 30.7°F-0.7°C 24.6°F-4.1°C 78% 1.8 mph S2.9 kmh S 2.2 mph3.5 kmh 30.41 in1029.8 mb 0.00 in0.0 mm 0.00 in0.0 mm 0.00 in0.0 mm
02:39 AM 30.7°F-0.7°C 24.1°F-4.4°C 76% 1.6 mph S2.6 kmh S 2.2 mph3.5 kmh 30.40 in1029.5 mb 0.00 in0.0 mm 0.00 in0.0 mm 0.00 in0.0 mm
02:44 AM 30.7°F-0.7°C 24.1°F-4.4°C 76% 1.8 mph SSE2.9 kmh SSE 2.2 mph3.5 kmh 30.40 in1029.5 mb 0.00 in0.0 mm 0.00 in0.0 mm 0.00 in0.0 mm
02:49 AM 30.6°F-0.8°C 23.9°F-4.5°C 76% 1.1 mph S1.8 kmh S 1.6 mph2.6 kmh 30.40 in1029.5 mb 0.00 in0.0 mm 0.00 in0.0 mm 0.00 in0.0 mm
02:54 AM 30.7°F-0.7°C 23.7°F-4.6°C 75% 1.1 mph S1.8 kmh S 1.8 mph2.9 kmh 30.40 in1029.5 mb 0.00 in0.0 mm 0.00 in0.0 mm 0.00 in0.0 mm
02:59 AM 30.6°F-0.8°C 23.5°F-4.7°C 75% 1.8 mph SE2.9 kmh SE 2.7 mph4.3 kmh 30.40 in1029.5 mb 0.00 in0.0 mm 0.00 in0.0 mm 0.00 in0.0 mm
03:04 AM 30.6°F-0.8°C 23.9°F-4.5°C 76% 1.3 mph S2.1 kmh S 2.0 mph3.2 kmh 30.40 in1029.5 mb 0.00 in0.0 mm 0.00 in0.0 mm 0.00 in0.0 mm
03:09 AM 30.6°F-0.8°C 23.9°F-4.5°C 76% 1.8 mph SSE2.9 kmh SSE 2.5 mph4.0 kmh 30.40 in1029.5 mb 0.00 in0.0 mm 0.00 in0.0 mm 0.00 in0.0 mm
03:14 AM 30.7°F-0.7°C 24.1°F-4.4°C 76% 1.3 mph SE2.1 kmh SE 2.0 mph3.2 kmh 30.40 in1029.5 mb 0.00 in0.0 mm 0.00 in0.0 mm 0.00 in0.0 mm
03:19 AM 30.6°F-0.8°C 23.5°F-4.7°C 75% 1.3 mph S2.1 kmh S 2.0 mph3.2 kmh 30.40 in1029.5 mb 0.00 in0.0 mm 0.00 in0.0 mm 0.00 in0.0 mm
03:24 AM 30.6°F-0.8°C 23.9°F-4.5°C 76% 1.1 mph S1.8 kmh S 1.3 mph2.1 kmh 30.40 in1029.5 mb 0.00 in0.0 mm 0.00 in0.0 mm 0.00 in0.0 mm
03:29 AM 30.6°F-0.8°C 23.5°F-4.7°C 75% Calm Calm -- 30.40 in1029.5 mb 0.00 in0.0 mm 0.00 in0.0 mm 0.00 in0.0 mm
03:34 AM 30.4°F-0.9°C 24.3°F-4.3°C 78% 0.7 mph SE1.1 kmh SE 1.1 mph1.8 kmh 30.40 in1029.5 mb 0.00 in0.0 mm 0.00 in0.0 mm 0.00 in0.0 mm
03:39 AM 30.6°F-0.8°C 23.9°F-4.5°C 76% 0.9 mph S1.4 kmh S 1.1 mph1.8 kmh 30.40 in1029.5 mb 0.00 in0.0 mm 0.00 in0.0 mm 0.00 in0.0 mm
03:44 AM 30.7°F-0.7°C 24.1°F-4.4°C 76% 1.1 mph N1.8 kmh N 1.1 mph1.8 kmh 30.40 in1029.5 mb 0.00 in0.0 mm 0.00 in0.0 mm 0.00 in0.0 mm
03:49 AM 30.6°F-0.8°C 24.4°F-4.2°C 78% 1.1 mph ESE1.8 kmh ESE 1.1 mph1.8 kmh 30.39 in1029.1 mb 0.00 in0.0 mm 0.00 in0.0 mm 0.00 in0.0 mm
03:54 AM 30.7°F-0.7°C 24.6°F-4.1°C 78% 0.7 mph SE1.1 kmh SE 0.9 mph1.4 kmh 30.39 in1029.1 mb 0.00 in0.0 mm 0.00 in0.0 mm 0.00 in0.0 mm
03:59 AM 30.7°F-0.7°C 24.1°F-4.4°C 76% 0.9 mph S1.4 kmh S 1.1 mph1.8 kmh 30.39 in1029.1 mb 0.00 in0.0 mm 0.00 in0.0 mm 0.00 in0.0 mm
04:04 AM 30.6°F-0.8°C 23.9°F-4.5°C 76% 0.9 mph S1.4 kmh S 1.1 mph1.8 kmh 30.38 in1028.8 mb 0.00 in0.0 mm 0.00 in0.0 mm 0.00 in0.0 mm
04:09 AM 30.6°F-0.8°C 23.9°F-4.5°C 76% 0.9 mph SSE1.4 kmh SSE 1.1 mph1.8 kmh 30.38 in1028.8 mb 0.00 in0.0 mm 0.00 in0.0 mm 0.00 in0.0 mm
04:14 AM 30.4°F-0.9°C 23.4°F-4.8°C 75% 0.7 mph SSE1.1 kmh SSE 0.9 mph1.4 kmh 30.38 in1028.8 mb 0.00 in0.0 mm 0.00 in0.0 mm 0.00 in0.0 mm
04:19 AM 30.2°F-1.0°C 23.2°F-4.9°C 75% 0.9 mph S1.4 kmh S 1.3 mph2.1 kmh 30.37 in1028.4 mb 0.00 in0.0 mm 0.00 in0.0 mm 0.00 in0.0 mm
04:24 AM 30.4°F-0.9°C 23.7°F-4.6°C 76% 0.7 mph S1.1 kmh S 0.9 mph1.4 kmh 30.37 in1028.4 mb 0.00 in0.0 mm 0.00 in0.0 mm 0.00 in0.0 mm
04:29 AM 30.2°F-1.0°C 24.1°F-4.4°C 78% 0.4 mph E0.6 kmh E 1.1 mph1.8 kmh 30.37 in1028.4 mb 0.00 in0.0 mm 0.00 in0.0 mm 0.00 in0.0 mm
04:34 AM 30.2°F-1.0°C 24.1°F-4.4°C 78% 1.1 mph SE1.8 kmh SE 1.8 mph2.9 kmh 30.37 in1028.4 mb 0.00 in0.0 mm 0.00 in0.0 mm 0.00 in0.0 mm
04:39 AM 30.4°F-0.9°C 24.3°F-4.3°C 78% 1.8 mph SE2.9 kmh SE 2.0 mph3.2 kmh 30.37 in1028.4 mb 0.00 in0.0 mm 0.00 in0.0 mm 0.00 in0.0 mm
04:44 AM 30.2°F-1.0°C 24.1°F-4.4°C 78% 1.6 mph SE2.6 kmh SE 1.8 mph2.9 kmh 30.37 in1028.4 mb 0.00 in0.0 mm 0.00 in0.0 mm 0.00 in0.0 mm
04:49 AM 30.2°F-1.0°C 24.1°F-4.4°C 78% 1.6 mph SE2.6 kmh SE 2.2 mph3.5 kmh 30.36 in1028.1 mb 0.00 in0.0 mm 0.00 in0.0 mm 0.00 in0.0 mm
04:54 AM 30.4°F-0.9°C 24.3°F-4.3°C 78% 1.1 mph S1.8 kmh S 1.8 mph2.9 kmh 30.37 in1028.4 mb 0.00 in0.0 mm 0.00 in0.0 mm 0.00 in0.0 mm
04:59 AM 30.2°F-1.0°C 24.1°F-4.4°C 78% 1.6 mph S2.6 kmh S 2.0 mph3.2 kmh 30.37 in1028.4 mb 0.00 in0.0 mm 0.00 in0.0 mm 0.00 in0.0 mm
05:04 AM 30.2°F-1.0°C 24.1°F-4.4°C 78% 1.1 mph S1.8 kmh S 1.8 mph2.9 kmh 30.36 in1028.1 mb 0.00 in0.0 mm 0.00 in0.0 mm 0.00 in0.0 mm
05:09 AM 30.2°F-1.0°C 24.1°F-4.4°C 78% 0.4 mph WNW0.6 kmh WNW 1.1 mph1.8 kmh 30.36 in1028.1 mb 0.00 in0.0 mm 0.00 in0.0 mm 0.00 in0.0 mm
05:14 AM 30.0°F-1.1°C 24.1°F-4.4°C 78% 0.7 mph SSE1.1 kmh SSE 1.1 mph1.8 kmh 30.36 in1028.1 mb 0.00 in0.0 mm 0.00 in0.0 mm 0.00 in0.0 mm
05:19 AM 30.2°F-1.0°C 24.4°F-4.2°C 79% 0.4 mph S0.6 kmh S 1.1 mph1.8 kmh 30.36 in1028.1 mb 0.00 in0.0 mm 0.00 in0.0 mm 0.00 in0.0 mm
05:24 AM 30.2°F-1.0°C 24.4°F-4.2°C 79% 0.9 mph S1.4 kmh S 1.1 mph1.8 kmh 30.35 in1027.8 mb 0.00 in0.0 mm 0.00 in0.0 mm 0.00 in0.0 mm
05:29 AM 30.0°F-1.1°C 24.3°F-4.3°C 79% Calm Calm -- 30.35 in1027.8 mb 0.00 in0.0 mm 0.00 in0.0 mm 0.00 in0.0 mm
05:34 AM 30.2°F-1.0°C 24.4°F-4.2°C 79% 0.2 mph E0.3 kmh E 1.1 mph1.8 kmh 30.35 in1027.8 mb 0.00 in0.0 mm 0.00 in0.0 mm 0.00 in0.0 mm
05:39 AM 30.2°F-1.0°C 24.4°F-4.2°C 79% 0.7 mph SSE1.1 kmh SSE 0.7 mph1.1 kmh 30.35 in1027.8 mb 0.00 in0.0 mm 0.00 in0.0 mm 0.00 in0.0 mm
05:44 AM 30.2°F-1.0°C 24.4°F-4.2°C 79% 0.4 mph SE0.6 kmh SE 1.3 mph2.1 kmh 30.35 in1027.8 mb 0.00 in0.0 mm 0.00 in0.0 mm 0.00 in0.0 mm
05:49 AM 30.2°F-1.0°C 24.4°F-4.2°C 79% 0.9 mph SE1.4 kmh SE 1.8 mph2.9 kmh 30.34 in1027.4 mb 0.00 in0.0 mm 0.00 in0.0 mm 0.00 in0.0 mm
05:54 AM 30.2°F-1.0°C 24.1°F-4.4°C 78% 1.1 mph SE1.8 kmh SE 2.0 mph3.2 kmh 30.33 in1027.1 mb 0.00 in0.0 mm 0.00 in0.0 mm 0.00 in0.0 mm
05:59 AM 30.2°F-1.0°C 24.1°F-4.4°C 78% 1.3 mph SE2.1 kmh SE 2.2 mph3.5 kmh 30.33 in1027.1 mb 0.00 in0.0 mm 0.00 in0.0 mm 0.00 in0.0 mm
06:04 AM 30.0°F-1.1°C 24.3°F-4.3°C 79% 1.6 mph SSE2.6 kmh SSE 2.2 mph3.5 kmh 30.33 in1027.1 mb 0.00 in0.0 mm 0.00 in0.0 mm 0.00 in0.0 mm
06:09 AM 29.8°F-1.2°C 24.1°F-4.4°C 79% 0.7 mph SE1.1 kmh SE 1.1 mph1.8 kmh 30.33 in1027.1 mb 0.00 in0.0 mm 0.00 in0.0 mm 0.00 in0.0 mm
06:14 AM 30.0°F-1.1°C 24.6°F-4.1°C 80% 0.9 mph S1.4 kmh S 1.6 mph2.6 kmh 30.33 in1027.1 mb 0.00 in0.0 mm 0.00 in0.0 mm 0.00 in0.0 mm
06:19 AM 30.0°F-1.1°C 24.3°F-4.3°C 79% 0.9 mph SE1.4 kmh SE 1.6 mph2.6 kmh 30.33 in1027.1 mb 0.00 in0.0 mm 0.00 in0.0 mm 0.00 in0.0 mm
06:24 AM 30.0°F-1.1°C 24.3°F-4.3°C 79% 1.3 mph S2.1 kmh S 2.0 mph3.2 kmh 30.32 in1026.8 mb 0.00 in0.0 mm 0.00 in0.0 mm 0.00 in0.0 mm
06:29 AM 30.2°F-1.0°C 24.4°F-4.2°C 79% 1.6 mph S2.6 kmh S 2.0 mph3.2 kmh 30.32 in1026.8 mb 0.00 in0.0 mm 0.00 in0.0 mm 0.00 in0.0 mm
06:34 AM 30.2°F-1.0°C 24.4°F-4.2°C 79% 1.3 mph S2.1 kmh S 2.0 mph3.2 kmh 30.32 in1026.8 mb 0.00 in0.0 mm 0.00 in0.0 mm 0.00 in0.0 mm
06:39 AM 30.2°F-1.0°C 24.4°F-4.2°C 79% 1.3 mph S2.1 kmh S 1.8 mph2.9 kmh 30.32 in1026.8 mb 0.00 in0.0 mm 0.00 in0.0 mm 0.00 in0.0 mm
06:44 AM 30.4°F-0.9°C 24.6°F-4.1°C 79% 1.1 mph S1.8 kmh S 1.6 mph2.6 kmh 30.32 in1026.8 mb 0.00 in0.0 mm 0.00 in0.0 mm 0.00 in0.0 mm
06:49 AM 30.2°F-1.0°C 24.4°F-4.2°C 79% 0.4 mph S0.6 kmh S 1.6 mph2.6 kmh 30.31 in1026.4 mb 0.00 in0.0 mm 0.00 in0.0 mm 0.00 in0.0 mm
06:54 AM 30.4°F-0.9°C 24.6°F-4.1°C 79% 1.3 mph S2.1 kmh S 2.2 mph3.5 kmh 30.30 in1026.1 mb 0.00 in0.0 mm 0.00 in0.0 mm 0.00 in0.0 mm
06:59 AM 30.4°F-0.9°C 24.6°F-4.1°C 79% 1.8 mph S2.9 kmh S 2.5 mph4.0 kmh 30.30 in1026.1 mb 0.00 in0.0 mm 0.00 in0.0 mm 0.00 in0.0 mm
07:04 AM 30.4°F-0.9°C 24.6°F-4.1°C 79% 1.8 mph S2.9 kmh S 2.2 mph3.5 kmh 30.30 in1026.1 mb 0.00 in0.0 mm 0.00 in0.0 mm 0.00 in0.0 mm
07:09 AM 30.4°F-0.9°C 24.6°F-4.1°C 79% 2.0 mph S3.2 kmh S 2.7 mph4.3 kmh 30.30 in1026.1 mb 0.00 in0.0 mm 0.00 in0.0 mm 0.00 in0.0 mm
07:14 AM 30.4°F-0.9°C 24.3°F-4.3°C 78% 1.8 mph S2.9 kmh S 2.2 mph3.5 kmh 30.30 in1026.1 mb 0.00 in0.0 mm 0.00 in0.0 mm 0.00 in0.0 mm
07:19 AM 30.6°F-0.8°C 24.4°F-4.2°C 78% 1.8 mph S2.9 kmh S 2.2 mph3.5 kmh 30.30 in1026.1 mb 0.00 in0.0 mm 0.00 in0.0 mm 0.00 in0.0 mm
07:24 AM 30.6°F-0.8°C 24.4°F-4.2°C 78% 2.2 mph S3.5 kmh S 2.9 mph4.7 kmh 30.30 in1026.1 mb 0.00 in0.0 mm 0.00 in0.0 mm 0.00 in0.0 mm
07:29 AM 30.7°F-0.7°C 24.6°F-4.1°C 78% 1.8 mph S2.9 kmh S 2.7 mph4.3 kmh 30.30 in1026.1 mb 0.00 in0.0 mm 0.00 in0.0 mm 0.00 in0.0 mm
07:34 AM 30.7°F-0.7°C 24.6°F-4.1°C 78% 3.1 mph SSE5.0 kmh SSE 3.8 mph6.1 kmh 30.30 in1026.1 mb 0.00 in0.0 mm 0.00 in0.0 mm 0.00 in0.0 mm
07:39 AM 30.9°F-0.6°C 24.8°F-4.0°C 78% 2.9 mph SE4.7 kmh SE 3.6 mph5.8 kmh 30.29 in1025.7 mb 0.00 in0.0 mm 0.00 in0.0 mm 0.00 in0.0 mm
07:44 AM 31.1°F-0.5°C 25.0°F-3.9°C 78% 3.4 mph SE5.5 kmh SE 3.8 mph6.1 kmh 30.28 in1025.4 mb 0.00 in0.0 mm 0.00 in0.0 mm 0.00 in0.0 mm
07:49 AM 31.3°F-0.4°C 25.2°F-3.8°C 78% 2.0 mph SE3.2 kmh SE 2.9 mph4.7 kmh 30.29 in1025.7 mb 0.00 in0.0 mm 0.00 in0.0 mm 0.00 in0.0 mm
07:54 AM 31.1°F-0.5°C 24.4°F-4.2°C 76% 2.0 mph SSE3.2 kmh SSE 2.7 mph4.3 kmh 30.28 in1025.4 mb 0.00 in0.0 mm 0.00 in0.0 mm 0.00 in0.0 mm
07:59 AM 30.9°F-0.6°C 24.3°F-4.3°C 76% 2.5 mph SE4.0 kmh SE 3.4 mph5.5 kmh 30.28 in1025.4 mb 0.00 in0.0 mm 0.00 in0.0 mm 0.00 in0.0 mm
08:04 AM 31.1°F-0.5°C 25.0°F-3.9°C 78% 2.0 mph SSE3.2 kmh SSE 2.5 mph4.0 kmh 30.28 in1025.4 mb 0.00 in0.0 mm 0.00 in0.0 mm 0.00 in0.0 mm
08:09 AM 31.1°F-0.5°C 24.4°F-4.2°C 76% 2.2 mph SE3.5 kmh SE 3.1 mph5.0 kmh 30.28 in1025.4 mb 0.00 in0.0 mm 0.00 in0.0 mm 0.00 in0.0 mm
08:14 AM 30.9°F-0.6°C 24.3°F-4.3°C 76% 2.0 mph SE3.2 kmh SE 2.9 mph4.7 kmh 30.27 in1025.1 mb 0.00 in0.0 mm 0.00 in0.0 mm 0.00 in0.0 mm
08:19 AM 30.9°F-0.6°C 24.3°F-4.3°C 76% 2.2 mph SSE3.5 kmh SSE 3.1 mph5.0 kmh 30.27 in1025.1 mb 0.00 in0.0 mm 0.00 in0.0 mm 0.00 in0.0 mm
08:24 AM 31.1°F-0.5°C 24.4°F-4.2°C 76% 2.7 mph SSE4.3 kmh SSE 3.6 mph5.8 kmh 30.27 in1025.1 mb 0.00 in0.0 mm 0.00 in0.0 mm 0.00 in0.0 mm
08:29 AM 31.1°F-0.5°C 24.4°F-4.2°C 76% 1.8 mph SSE2.9 kmh SSE 2.7 mph4.3 kmh 30.27 in1025.1 mb 0.00 in0.0 mm 0.00 in0.0 mm 0.00 in0.0 mm
08:34 AM 31.3°F-0.4°C 24.6°F-4.1°C 76% 2.0 mph SE3.2 kmh SE 2.7 mph4.3 kmh 30.27 in1025.1 mb 0.00 in0.0 mm 0.00 in0.0 mm 0.00 in0.0 mm
08:39 AM 31.3°F-0.4°C 24.6°F-4.1°C 76% 2.2 mph SSE3.5 kmh SSE 2.7 mph4.3 kmh 30.27 in1025.1 mb 0.00 in0.0 mm 0.00 in0.0 mm 0.00 in0.0 mm
08:44 AM 31.3°F-0.4°C 24.6°F-4.1°C 76% 2.5 mph SSE4.0 kmh SSE 2.9 mph4.7 kmh 30.27 in1025.1 mb 0.00 in0.0 mm 0.00 in0.0 mm 0.00 in0.0 mm
08:49 AM 31.5°F-0.3°C 24.8°F-4.0°C 76% 3.6 mph SSE5.8 kmh SSE 4.9 mph7.9 kmh 30.27 in1025.1 mb 0.00 in0.0 mm 0.00 in0.0 mm 0.00 in0.0 mm
08:54 AM 31.6°F-0.2°C 25.0°F-3.9°C 76% 2.9 mph SSE4.7 kmh SSE 4.0 mph6.4 kmh 30.27 in1025.1 mb 0.00 in0.0 mm 0.00 in0.0 mm 0.00 in0.0 mm
08:59 AM 31.8°F-0.1°C 25.2°F-3.8°C 76% 3.4 mph SSE5.5 kmh SSE 4.5 mph7.2 kmh 30.27 in1025.1 mb 0.00 in0.0 mm 0.00 in0.0 mm 0.00 in0.0 mm
09:04 AM 32.0°F0.0°C 25.0°F-3.9°C 75% 3.6 mph SSE5.8 kmh SSE 4.9 mph7.9 kmh 30.27 in1025.1 mb 0.00 in0.0 mm 0.00 in0.0 mm 0.00 in0.0 mm
09:09 AM 32.2°F0.1°C 25.2°F-3.8°C 75% 3.1 mph SSE5.0 kmh SSE 4.0 mph6.4 kmh 30.27 in1025.1 mb 0.00 in0.0 mm 0.00 in0.0 mm 0.00 in0.0 mm
09:14 AM 32.4°F0.2°C 25.3°F-3.7°C 75% 2.9 mph SSE4.7 kmh SSE 4.0 mph6.4 kmh 30.27 in1025.1 mb 0.00 in0.0 mm 0.00 in0.0 mm 0.00 in0.0 mm
09:19 AM 32.5°F0.3°C 25.5°F-3.6°C 75% 3.6 mph SSE5.8 kmh SSE 7.2 mph11.6 kmh 30.27 in1025.1 mb 0.00 in0.0 mm 0.00 in0.0 mm 0.00 in0.0 mm
09:24 AM 32.7°F0.4°C 25.7°F-3.5°C 75% 2.7 mph SSE4.3 kmh SSE 4.3 mph6.9 kmh 30.27 in1025.1 mb 0.00 in0.0 mm 0.00 in0.0 mm 0.00 in0.0 mm
09:29 AM 32.7°F0.4°C 26.1°F-3.3°C 76% 2.7 mph SSE4.3 kmh SSE 3.4 mph5.5 kmh 30.26 in1024.7 mb 0.00 in0.0 mm 0.00 in0.0 mm 0.00 in0.0 mm
09:34 AM 32.7°F0.4°C 26.1°F-3.3°C 76% 2.7 mph SSE4.3 kmh SSE 3.8 mph6.1 kmh 30.26 in1024.7 mb 0.00 in0.0 mm 0.00 in0.0 mm 0.00 in0.0 mm
09:39 AM 33.1°F0.6°C 26.4°F-3.1°C 76% 2.5 mph SE4.0 kmh SE 3.4 mph5.5 kmh 30.26 in1024.7 mb 0.00 in0.0 mm 0.00 in0.0 mm 0.00 in0.0 mm
09:44 AM 33.3°F0.7°C 26.6°F-3.0°C 76% 2.0 mph S3.2 kmh S 2.7 mph4.3 kmh 30.26 in1024.7 mb 0.00 in0.0 mm 0.00 in0.0 mm 0.00 in0.0 mm
09:49 AM 33.4°F0.8°C 26.6°F-3.0°C 76% 2.9 mph SE4.7 kmh SE 3.8 mph6.1 kmh 30.26 in1024.7 mb 0.00 in0.0 mm 0.00 in0.0 mm 0.00 in0.0 mm
09:54 AM 33.6°F0.9°C 26.8°F-2.9°C 76% 2.0 mph SSE3.2 kmh SSE 4.3 mph6.9 kmh 30.25 in1024.4 mb 0.00 in0.0 mm 0.00 in0.0 mm 0.00 in0.0 mm
09:59 AM 33.6°F0.9°C 26.6°F-3.0°C 75% 3.1 mph SE5.0 kmh SE 4.0 mph6.4 kmh 30.25 in1024.4 mb 0.00 in0.0 mm 0.00 in0.0 mm 0.00 in0.0 mm
10:04 AM 33.8°F1.0°C 26.8°F-2.9°C 75% 2.9 mph SE4.7 kmh SE 3.8 mph6.1 kmh 30.25 in1024.4 mb 0.00 in0.0 mm 0.00 in0.0 mm 0.00 in0.0 mm
10:09 AM 34.0°F1.1°C 27.0°F-2.8°C 75% 2.7 mph SSE4.3 kmh SSE 4.3 mph6.9 kmh 30.25 in1024.4 mb 0.00 in0.0 mm 0.00 in0.0 mm 0.00 in0.0 mm
10:14 AM 34.2°F1.2°C 27.1°F-2.7°C 75% 2.5 mph SSE4.0 kmh SSE 3.1 mph5.0 kmh 30.24 in1024.0 mb 0.00 in0.0 mm 0.00 in0.0 mm 0.00 in0.0 mm
10:19 AM 34.3°F1.3°C 27.0°F-2.8°C 74% 2.9 mph S4.7 kmh S 3.6 mph5.8 kmh 30.24 in1024.0 mb 0.00 in0.0 mm 0.00 in0.0 mm 0.00 in0.0 mm
10:24 AM 34.5°F1.4°C 27.1°F-2.7°C 74% 3.1 mph SE5.0 kmh SE 4.9 mph7.9 kmh 30.24 in1024.0 mb 0.00 in0.0 mm 0.00 in0.0 mm 0.00 in0.0 mm
10:29 AM 34.7°F1.5°C 27.3°F-2.6°C 74% 4.3 mph SE6.9 kmh SE 6.5 mph10.5 kmh 30.23 in1023.7 mb 0.00 in0.0 mm 0.00 in0.0 mm 0.00 in0.0 mm
10:34 AM 35.1°F1.7°C 27.7°F-2.4°C 74% 3.6 mph S5.8 kmh S 4.7 mph7.6 kmh 30.23 in1023.7 mb 0.00 in0.0 mm 0.00 in0.0 mm 0.00 in0.0 mm
10:39 AM 35.2°F1.8°C 27.9°F-2.3°C 74% 3.6 mph SSE5.8 kmh SSE 4.7 mph7.6 kmh 30.23 in1023.7 mb 0.00 in0.0 mm 0.00 in0.0 mm 0.00 in0.0 mm
10:44 AM 35.4°F1.9°C 28.0°F-2.2°C 74% 4.0 mph SE6.4 kmh SE 6.9 mph11.1 kmh 30.22 in1023.4 mb 0.00 in0.0 mm 0.00 in0.0 mm 0.00 in0.0 mm
10:49 AM 35.8°F2.1°C 27.3°F-2.6°C 71% 3.6 mph SE5.8 kmh SE 5.1 mph8.2 kmh 30.22 in1023.4 mb 0.00 in0.0 mm 0.00 in0.0 mm 0.00 in0.0 mm
10:54 AM 36.0°F2.2°C 28.2°F-2.1°C 73% 3.8 mph SSE6.1 kmh SSE 6.5 mph10.5 kmh 30.21 in1023.0 mb 0.00 in0.0 mm 0.00 in0.0 mm 0.00 in0.0 mm
10:59 AM 36.1°F2.3°C 27.7°F-2.4°C 71% 4.5 mph SE7.2 kmh SE 6.0 mph9.7 kmh 30.20 in1022.7 mb 0.00 in0.0 mm 0.00 in0.0 mm 0.00 in0.0 mm
11:04 AM 36.3°F2.4°C 27.9°F-2.3°C 71% 3.4 mph SE5.5 kmh SE 5.1 mph8.2 kmh 30.20 in1022.7 mb 0.00 in0.0 mm 0.00 in0.0 mm 0.00 in0.0 mm
11:09 AM 36.5°F2.5°C 28.0°F-2.2°C 71% 3.6 mph SSE5.8 kmh SSE 6.5 mph10.5 kmh 30.20 in1022.7 mb 0.00 in0.0 mm 0.00 in0.0 mm 0.00 in0.0 mm
11:14 AM 36.7°F2.6°C 28.2°F-2.1°C 71% 3.1 mph SSE5.0 kmh SSE 4.3 mph6.9 kmh 30.20 in1022.7 mb 0.00 in0.0 mm 0.00 in0.0 mm 0.00 in0.0 mm
11:19 AM 37.0°F2.8°C 28.2°F-2.1°C 70% 4.0 mph SSE6.4 kmh SSE 4.9 mph7.9 kmh 30.20 in1022.7 mb 0.00 in0.0 mm 0.00 in0.0 mm 0.00 in0.0 mm
11:24 AM 37.2°F2.9°C 28.4°F-2.0°C 70% 4.0 mph SSE6.4 kmh SSE 5.8 mph9.3 kmh 30.20 in1022.7 mb 0.00 in0.0 mm 0.00 in0.0 mm 0.00 in0.0 mm
11:28 AM 37.4°F3.0°C 28.6°F-1.9°C 70% 3.8 mph SSE6.1 kmh SSE 6.3 mph10.1 kmh 30.19 in1022.4 mb 0.00 in0.0 mm 0.00 in0.0 mm 0.00 in0.0 mm
11:34 AM 37.6°F3.1°C 28.8°F-1.8°C 70% 3.8 mph SSE6.1 kmh SSE 6.9 mph11.1 kmh 30.19 in1022.4 mb 0.00 in0.0 mm 0.00 in0.0 mm 0.00 in0.0 mm
11:39 AM 37.8°F3.2°C 28.9°F-1.7°C 70% 4.3 mph SSE6.9 kmh SSE 7.2 mph11.6 kmh 30.19 in1022.4 mb 0.00 in0.0 mm 0.00 in0.0 mm 0.00 in0.0 mm
11:44 AM 37.9°F3.3°C 28.9°F-1.7°C 70% 6.9 mph S11.1 kmh S 10.7 mph17.2 kmh 30.19 in1022.4 mb 0.00 in0.0 mm 0.00 in0.0 mm 0.00 in0.0 mm
11:49 AM 38.1°F3.4°C 28.8°F-1.8°C 69% 4.5 mph S7.2 kmh S 6.7 mph10.8 kmh 30.19 in1022.4 mb 0.00 in0.0 mm 0.00 in0.0 mm 0.00 in0.0 mm
11:54 AM 38.3°F3.5°C 29.3°F-1.5°C 70% 3.6 mph SE5.8 kmh SE 5.6 mph9.0 kmh 30.19 in1022.4 mb 0.00 in0.0 mm 0.00 in0.0 mm 0.00 in0.0 mm
11:59 AM 38.5°F3.6°C 29.1°F-1.6°C 69% 5.6 mph SSE9.0 kmh SSE 8.7 mph14.0 kmh 30.19 in1022.4 mb 0.00 in0.0 mm 0.00 in0.0 mm 0.00 in0.0 mm
12:04 PM 38.7°F3.7°C 29.3°F-1.5°C 69% 4.7 mph ESE7.6 kmh ESE 6.3 mph10.1 kmh 30.18 in1022.0 mb 0.00 in0.0 mm 0.00 in0.0 mm 0.00 in0.0 mm
12:09 PM 38.8°F3.8°C 29.5°F-1.4°C 69% 3.8 mph SE6.1 kmh SE 7.2 mph11.6 kmh 30.18 in1022.0 mb 0.00 in0.0 mm 0.00 in0.0 mm 0.00 in0.0 mm
12:14 PM 39.2°F4.0°C 29.8°F-1.2°C 69% 4.0 mph SE6.4 kmh SE 6.9 mph11.1 kmh 30.18 in1022.0 mb 0.00 in0.0 mm 0.00 in0.0 mm 0.00 in0.0 mm
12:19 PM 39.4°F4.1°C 30.0°F-1.1°C 69% 4.3 mph SE6.9 kmh SE 6.7 mph10.8 kmh 30.18 in1022.0 mb 0.00 in0.0 mm 0.00 in0.0 mm 0.00 in0.0 mm
12:24 PM 39.6°F4.2°C 29.8°F-1.2°C 68% 7.6 mph S12.2 kmh S 10.1 mph16.3 kmh 30.18 in1022.0 mb 0.00 in0.0 mm 0.00 in0.0 mm 0.00 in0.0 mm
12:29 PM 39.7°F4.3°C 30.0°F-1.1°C 68% 4.5 mph SSE7.2 kmh SSE 6.7 mph10.8 kmh 30.17 in1021.7 mb 0.00 in0.0 mm 0.00 in0.0 mm 0.00 in0.0 mm
12:34 PM 40.1°F4.5°C 30.4°F-0.9°C 68% 4.9 mph S7.9 kmh S 8.3 mph13.4 kmh 30.17 in1021.7 mb 0.00 in0.0 mm 0.00 in0.0 mm 0.00 in0.0 mm
12:39 PM 40.1°F4.5°C 30.4°F-0.9°C 68% 4.7 mph SE7.6 kmh SE 9.2 mph14.8 kmh 30.16 in1021.3 mb 0.00 in0.0 mm 0.00 in0.0 mm 0.00 in0.0 mm
12:44 PM 40.3°F4.6°C 30.6°F-0.8°C 68% 4.0 mph SE6.4 kmh SE 6.7 mph10.8 kmh 30.16 in1021.3 mb 0.00 in0.0 mm 0.00 in0.0 mm 0.00 in0.0 mm
12:49 PM 40.6°F4.8°C 31.3°F-0.4°C 69% 7.2 mph S11.6 kmh S 9.4 mph15.1 kmh 30.16 in1021.3 mb 0.00 in0.0 mm 0.00 in0.0 mm 0.00 in0.0 mm
12:54 PM 40.8°F4.9°C 31.5°F-0.3°C 69% 3.6 mph SSE5.8 kmh SSE 5.6 mph9.0 kmh 30.16 in1021.3 mb 0.00 in0.0 mm 0.00 in0.0 mm 0.00 in0.0 mm
12:59 PM 41.2°F5.1°C 31.8°F-0.1°C 69% 4.5 mph SSE7.2 kmh SSE 6.5 mph10.5 kmh 30.16 in1021.3 mb 0.00 in0.0 mm 0.00 in0.0 mm 0.00 in0.0 mm
01:04 PM 41.4°F5.2°C 32.0°F0.0°C 69% 4.7 mph S7.6 kmh S 6.3 mph10.1 kmh 30.15 in1021.0 mb 0.00 in0.0 mm 0.00 in0.0 mm 0.00 in0.0 mm
01:09 PM 41.4°F5.2°C 32.0°F0.0°C 69% 6.7 mph S10.8 kmh S 10.5 mph16.9 kmh 30.15 in1021.0 mb 0.00 in0.0 mm 0.00 in0.0 mm 0.00 in0.0 mm
01:14 PM 41.4°F5.2°C 31.6°F-0.2°C 68% 4.9 mph SSE7.9 kmh SSE 9.4 mph15.1 kmh 30.14 in1020.7 mb 0.00 in0.0 mm 0.00 in0.0 mm 0.00 in0.0 mm
01:19 PM 41.5°F5.3°C 31.8°F-0.1°C 68% 4.5 mph SSE7.2 kmh SSE 6.7 mph10.8 kmh 30.14 in1020.7 mb 0.00 in0.0 mm 0.00 in0.0 mm 0.00 in0.0 mm
01:24 PM 41.4°F5.2°C 31.6°F-0.2°C 68% 3.8 mph SSE6.1 kmh SSE 5.8 mph9.3 kmh 30.14 in1020.7 mb 0.00 in0.0 mm 0.00 in0.0 mm 0.00 in0.0 mm
01:29 PM 41.2°F5.1°C 31.5°F-0.3°C 68% 6.3 mph S10.1 kmh S 8.7 mph14.0 kmh 30.14 in1020.7 mb 0.00 in0.0 mm 0.00 in0.0 mm 0.00 in0.0 mm
01:34 PM 41.2°F5.1°C 32.2°F0.1°C 70% 4.7 mph SSE7.6 kmh SSE 6.0 mph9.7 kmh 30.14 in1020.7 mb 0.00 in0.0 mm 0.00 in0.0 mm 0.00 in0.0 mm
01:39 PM 41.4°F5.2°C 32.4°F0.2°C 70% 5.6 mph SSE9.0 kmh SSE 7.8 mph12.6 kmh 30.13 in1020.3 mb 0.00 in0.0 mm 0.00 in0.0 mm 0.00 in0.0 mm
01:44 PM 41.7°F5.4°C 32.7°F0.4°C 70% 7.6 mph SE12.2 kmh SE 10.1 mph16.3 kmh 30.13 in1020.3 mb 0.00 in0.0 mm 0.00 in0.0 mm 0.00 in0.0 mm
01:49 PM 41.7°F5.4°C 32.7°F0.4°C 70% 4.9 mph SE7.9 kmh SE 7.2 mph11.6 kmh 30.13 in1020.3 mb 0.00 in0.0 mm 0.00 in0.0 mm 0.00 in0.0 mm
01:54 PM 41.9°F5.5°C 32.5°F0.3°C 69% 4.0 mph SE6.4 kmh SE 7.4 mph11.9 kmh 30.12 in1020.0 mb 0.00 in0.0 mm 0.00 in0.0 mm 0.00 in0.0 mm
01:59 PM 41.9°F5.5°C 32.5°F0.3°C 69% 4.3 mph SE6.9 kmh SE 6.7 mph10.8 kmh 30.11 in1019.6 mb 0.00 in0.0 mm 0.00 in0.0 mm 0.00 in0.0 mm
02:04 PM 42.3°F5.7°C 32.9°F0.5°C 69% 4.5 mph SSE7.2 kmh SSE 5.8 mph9.3 kmh 30.11 in1019.6 mb 0.00 in0.0 mm 0.00 in0.0 mm 0.00 in0.0 mm
02:09 PM 42.4°F5.8°C 32.9°F0.5°C 69% 4.5 mph S7.2 kmh S 6.3 mph10.1 kmh 30.11 in1019.6 mb 0.00 in0.0 mm 0.00 in0.0 mm 0.00 in0.0 mm
02:14 PM 42.8°F6.0°C 33.6°F0.9°C 70% 3.8 mph SE6.1 kmh SE 7.4 mph11.9 kmh 30.11 in1019.6 mb 0.00 in0.0 mm 0.00 in0.0 mm 0.00 in0.0 mm
02:19 PM 43.0°F6.1°C 33.4°F0.8°C 69% 5.6 mph S9.0 kmh S 8.3 mph13.4 kmh 30.10 in1019.3 mb 0.00 in0.0 mm 0.00 in0.0 mm 0.00 in0.0 mm
02:24 PM 42.8°F6.0°C 33.6°F0.9°C 70% 5.8 mph S9.3 kmh S 8.3 mph13.4 kmh 30.09 in1019.0 mb 0.00 in0.0 mm 0.00 in0.0 mm 0.00 in0.0 mm
02:29 PM 42.8°F6.0°C 33.6°F0.9°C 70% 6.7 mph S10.8 kmh S 13.2 mph21.2 kmh 30.09 in1019.0 mb 0.00 in0.0 mm 0.00 in0.0 mm 0.00 in0.0 mm
02:34 PM 42.8°F6.0°C 34.0°F1.1°C 71% 4.3 mph SE6.9 kmh SE 8.1 mph13.0 kmh 30.09 in1019.0 mb 0.00 in0.0 mm 0.00 in0.0 mm 0.00 in0.0 mm
02:39 PM 43.0°F6.1°C 34.9°F1.6°C 73% 6.5 mph S10.5 kmh S 7.6 mph12.2 kmh 30.08 in1018.6 mb 0.00 in0.0 mm 0.00 in0.0 mm 0.00 in0.0 mm
02:44 PM 43.0°F6.1°C 35.2°F1.8°C 74% 3.6 mph S5.8 kmh S 6.5 mph10.5 kmh 30.08 in1018.6 mb 0.00 in0.0 mm 0.00 in0.0 mm 0.00 in0.0 mm
02:49 PM 43.2°F6.2°C 35.1°F1.7°C 73% 4.9 mph S7.9 kmh S 9.4 mph15.1 kmh 30.08 in1018.6 mb 0.00 in0.0 mm 0.00 in0.0 mm 0.00 in0.0 mm
02:54 PM 43.2°F6.2°C 35.8°F2.1°C 75% 4.3 mph SSE6.9 kmh SSE 7.2 mph11.6 kmh 30.08 in1018.6 mb 0.00 in0.0 mm 0.00 in0.0 mm 0.00 in0.0 mm
02:59 PM 43.0°F6.1°C 35.6°F2.0°C 75% 3.6 mph S5.8 kmh S 6.3 mph10.1 kmh 30.08 in1018.6 mb 0.00 in0.0 mm 0.00 in0.0 mm 0.00 in0.0 mm
03:04 PM 43.0°F6.1°C 35.2°F1.8°C 74% 5.8 mph SSE9.3 kmh SSE 7.6 mph12.2 kmh 30.07 in1018.3 mb 0.00 in0.0 mm 0.00 in0.0 mm 0.00 in0.0 mm
03:09 PM 43.0°F6.1°C 35.6°F2.0°C 75% 4.9 mph SSE7.9 kmh SSE 6.9 mph11.1 kmh 30.06 in1017.9 mb 0.00 in0.0 mm 0.00 in0.0 mm 0.00 in0.0 mm
03:14 PM 43.2°F6.2°C 35.8°F2.1°C 75% 4.5 mph SSE7.2 kmh SSE 6.3 mph10.1 kmh 30.06 in1017.9 mb 0.00 in0.0 mm 0.00 in0.0 mm 0.00 in0.0 mm
03:19 PM 43.2°F6.2°C 35.8°F2.1°C 75% 5.8 mph S9.3 kmh S 8.9 mph14.3 kmh 30.05 in1017.6 mb 0.00 in0.0 mm 0.00 in0.0 mm 0.00 in0.0 mm
03:24 PM 43.3°F6.3°C 36.0°F2.2°C 75% 3.6 mph SSE5.8 kmh SSE 4.7 mph7.6 kmh 30.04 in1017.3 mb 0.00 in0.0 mm 0.00 in0.0 mm 0.00 in0.0 mm
03:29 PM 43.7°F6.5°C 36.3°F2.4°C 75% 8.1 mph S13.0 kmh S 10.5 mph16.9 kmh 30.04 in1017.3 mb 0.00 in0.0 mm 0.00 in0.0 mm 0.00 in0.0 mm
03:34 PM 43.9°F6.6°C 36.5°F2.5°C 75% 3.1 mph SSE5.0 kmh SSE 6.0 mph9.7 kmh 30.03 in1016.9 mb 0.00 in0.0 mm 0.00 in0.0 mm 0.00 in0.0 mm
03:39 PM 44.1°F6.7°C 36.7°F2.6°C 75% 6.5 mph SSE10.5 kmh SSE 9.6 mph15.4 kmh 30.03 in1016.9 mb 0.00 in0.0 mm 0.00 in0.0 mm 0.00 in0.0 mm
03:44 PM 44.1°F6.7°C 36.7°F2.6°C 75% 5.1 mph SSE8.2 kmh SSE 8.1 mph13.0 kmh 30.03 in1016.9 mb 0.00 in0.0 mm 0.00 in0.0 mm 0.00 in0.0 mm
03:49 PM 44.2°F6.8°C 37.2°F2.9°C 76% 4.5 mph SE7.2 kmh SE 9.4 mph15.1 kmh 30.03 in1016.9 mb 0.00 in0.0 mm 0.00 in0.0 mm 0.00 in0.0 mm
03:54 PM 44.6°F7.0°C 37.6°F3.1°C 76% 5.8 mph SSE9.3 kmh SSE 9.8 mph15.8 kmh 30.02 in1016.6 mb 0.00 in0.0 mm 0.00 in0.0 mm 0.00 in0.0 mm
03:59 PM 44.8°F7.1°C 37.4°F3.0°C 75% 6.0 mph SE9.7 kmh SE 10.7 mph17.2 kmh 30.02 in1016.6 mb 0.00 in0.0 mm 0.00 in0.0 mm 0.00 in0.0 mm
04:04 PM 44.6°F7.0°C 37.2°F2.9°C 75% 2.9 mph SE4.7 kmh SE 5.6 mph9.0 kmh 30.02 in1016.6 mb 0.00 in0.0 mm 0.00 in0.0 mm 0.00 in0.0 mm
04:09 PM 44.6°F7.0°C 37.2°F2.9°C 75% 4.5 mph S7.2 kmh S 6.7 mph10.8 kmh 30.02 in1016.6 mb 0.00 in0.0 mm 0.00 in0.0 mm 0.00 in0.0 mm
04:14 PM 44.6°F7.0°C 37.2°F2.9°C 75% 4.3 mph SE6.9 kmh SE 8.5 mph13.7 kmh 30.01 in1016.3 mb 0.00 in0.0 mm 0.00 in0.0 mm 0.00 in0.0 mm
04:19 PM 44.6°F7.0°C 37.2°F2.9°C 75% 6.0 mph SSE9.7 kmh SSE 9.4 mph15.1 kmh 30.02 in1016.6 mb 0.00 in0.0 mm 0.00 in0.0 mm 0.00 in0.0 mm
04:24 PM 44.6°F7.0°C 37.8°F3.2°C 77% 4.3 mph SSE6.9 kmh SSE 5.8 mph9.3 kmh 30.02 in1016.6 mb 0.00 in0.0 mm 0.00 in0.0 mm 0.00 in0.0 mm
04:29 PM 44.6°F7.0°C 37.8°F3.2°C 77% 7.6 mph S12.2 kmh S 11.0 mph17.7 kmh 30.01 in1016.3 mb 0.00 in0.0 mm 0.00 in0.0 mm 0.00 in0.0 mm
04:34 PM 44.6°F7.0°C 37.8°F3.2°C 77% 6.0 mph SE9.7 kmh SE 8.7 mph14.0 kmh 30.01 in1016.3 mb 0.00 in0.0 mm 0.00 in0.0 mm 0.00 in0.0 mm
04:39 PM 44.4°F6.9°C 37.9°F3.3°C 78% 5.1 mph S8.2 kmh S 7.6 mph12.2 kmh 30.01 in1016.3 mb 0.00 in0.0 mm 0.00 in0.0 mm 0.00 in0.0 mm
04:44 PM 44.6°F7.0°C 38.1°F3.4°C 78% 7.2 mph SSE11.6 kmh SSE 12.1 mph19.5 kmh 30.01 in1016.3 mb 0.00 in0.0 mm 0.00 in0.0 mm 0.00 in0.0 mm
04:49 PM 44.6°F7.0°C 38.1°F3.4°C 78% 4.9 mph S7.9 kmh S 8.1 mph13.0 kmh 30.01 in1016.3 mb 0.00 in0.0 mm 0.00 in0.0 mm 0.00 in0.0 mm
04:54 PM 44.6°F7.0°C 38.1°F3.4°C 78% 4.7 mph S7.6 kmh S 7.6 mph12.2 kmh 30.01 in1016.3 mb 0.00 in0.0 mm 0.00 in0.0 mm 0.00 in0.0 mm
04:59 PM 44.6°F7.0°C 38.1°F3.4°C 78% 6.5 mph SSE10.5 kmh SSE 10.5 mph16.9 kmh 30.01 in1016.3 mb 0.00 in0.0 mm 0.00 in0.0 mm 0.00 in0.0 mm
05:04 PM 44.6°F7.0°C 38.1°F3.4°C 78% 6.5 mph SSE10.5 kmh SSE 10.5 mph16.9 kmh 30.01 in1016.3 mb 0.00 in0.0 mm 0.00 in0.0 mm 0.00 in0.0 mm
05:09 PM 44.4°F6.9°C 37.9°F3.3°C 78% 5.1 mph SSE8.2 kmh SSE 7.6 mph12.2 kmh 30.00 in1015.9 mb 0.00 in0.0 mm 0.00 in0.0 mm 0.00 in0.0 mm
05:14 PM 44.4°F6.9°C 38.3°F3.5°C 79% 3.6 mph SSE5.8 kmh SSE 4.3 mph6.9 kmh 30.01 in1016.3 mb 0.00 in0.0 mm 0.00 in0.0 mm 0.00 in0.0 mm
05:19 PM 44.4°F6.9°C 38.3°F3.5°C 79% 4.9 mph SSE7.9 kmh SSE 6.7 mph10.8 kmh 30.01 in1016.3 mb 0.00 in0.0 mm 0.00 in0.0 mm 0.00 in0.0 mm
05:24 PM 44.4°F6.9°C 38.3°F3.5°C 79% 7.2 mph S11.6 kmh S 10.3 mph16.6 kmh 30.00 in1015.9 mb 0.00 in0.0 mm 0.00 in0.0 mm 0.00 in0.0 mm
05:29 PM 44.2°F6.8°C 38.1°F3.4°C 79% 5.6 mph S9.0 kmh S 10.5 mph16.9 kmh 30.01 in1016.3 mb 0.00 in0.0 mm 0.00 in0.0 mm 0.00 in0.0 mm
05:34 PM 44.4°F6.9°C 38.3°F3.5°C 79% 6.0 mph SSE9.7 kmh SSE 9.4 mph15.1 kmh 30.01 in1016.3 mb 0.00 in0.0 mm 0.00 in0.0 mm 0.00 in0.0 mm
05:39 PM 44.2°F6.8°C 38.1°F3.4°C 79% 6.7 mph SSE10.8 kmh SSE 8.7 mph14.0 kmh 30.01 in1016.3 mb 0.00 in0.0 mm 0.00 in0.0 mm 0.00 in0.0 mm
05:44 PM 44.2°F6.8°C 38.5°F3.6°C 80% 5.4 mph SSE8.7 kmh SSE 8.9 mph14.3 kmh 30.01 in1016.3 mb 0.00 in0.0 mm 0.00 in0.0 mm 0.00 in0.0 mm
05:49 PM 44.1°F6.7°C 38.8°F3.8°C 82% 3.8 mph S6.1 kmh S 5.6 mph9.0 kmh 30.01 in1016.3 mb 0.00 in0.0 mm 0.00 in0.0 mm 0.00 in0.0 mm
05:54 PM 43.7°F6.5°C 39.2°F4.0°C 84% 6.5 mph S10.5 kmh S 8.3 mph13.4 kmh 30.01 in1016.3 mb 0.00 in0.0 mm 0.00 in0.0 mm 0.00 in0.0 mm
05:59 PM 43.5°F6.4°C 39.0°F3.9°C 84% 6.0 mph S9.7 kmh S 7.6 mph12.2 kmh 30.01 in1016.3 mb 0.00 in0.0 mm 0.00 in0.0 mm 0.00 in0.0 mm
06:04 PM 43.3°F6.3°C 39.2°F4.0°C 85% 8.3 mph SSE13.4 kmh SSE 11.4 mph18.3 kmh 30.00 in1015.9 mb 0.00 in0.0 mm 0.00 in0.0 mm 0.00 in0.0 mm
06:09 PM 43.0°F6.1°C 39.0°F3.9°C 86% 3.8 mph SSE6.1 kmh SSE 6.3 mph10.1 kmh 30.00 in1015.9 mb 0.00 in0.0 mm 0.00 in0.0 mm 0.00 in0.0 mm
06:14 PM 43.0°F6.1°C 39.4°F4.1°C 87% 4.3 mph S6.9 kmh S 6.7 mph10.8 kmh 30.00 in1015.9 mb 0.00 in0.0 mm 0.00 in0.0 mm 0.00 in0.0 mm
06:19 PM 43.2°F6.2°C 39.6°F4.2°C 87% 6.7 mph S10.8 kmh S 9.4 mph15.1 kmh 30.00 in1015.9 mb 0.00 in0.0 mm 0.00 in0.0 mm 0.00 in0.0 mm
06:24 PM 42.8°F6.0°C 39.2°F4.0°C 87% 3.8 mph SE6.1 kmh SE 6.7 mph10.8 kmh 29.99 in1015.6 mb 0.00 in0.0 mm 0.00 in0.0 mm 0.00 in0.0 mm
06:29 PM 42.6°F5.9°C 39.4°F4.1°C 88% 4.9 mph S7.9 kmh S 6.7 mph10.8 kmh 29.99 in1015.6 mb 0.00 in0.0 mm 0.00 in0.0 mm 0.00 in0.0 mm
06:34 PM 42.4°F5.8°C 39.2°F4.0°C 88% 3.8 mph SSE6.1 kmh SSE 5.8 mph9.3 kmh 29.99 in1015.6 mb 0.00 in0.0 mm 0.00 in0.0 mm 0.00 in0.0 mm
06:39 PM 42.3°F5.7°C 39.2°F4.0°C 89% 4.9 mph S7.9 kmh S 8.7 mph14.0 kmh 29.99 in1015.6 mb 0.00 in0.0 mm 0.00 in0.0 mm 0.00 in0.0 mm
06:44 PM 42.1°F5.6°C 39.0°F3.9°C 89% 4.0 mph SSE6.4 kmh SSE 6.3 mph10.1 kmh 29.98 in1015.2 mb 0.00 in0.0 mm 0.00 in0.0 mm 0.00 in0.0 mm
06:49 PM 42.1°F5.6°C 39.0°F3.9°C 89% 4.9 mph S7.9 kmh S 6.9 mph11.1 kmh 29.99 in1015.6 mb 0.00 in0.0 mm 0.00 in0.0 mm 0.00 in0.0 mm
06:54 PM 41.9°F5.5°C 38.8°F3.8°C 89% 4.5 mph SSE7.2 kmh SSE 7.2 mph11.6 kmh 29.99 in1015.6 mb 0.00 in0.0 mm 0.00 in0.0 mm 0.00 in0.0 mm
06:59 PM 41.9°F5.5°C 38.8°F3.8°C 89% 4.7 mph SSE7.6 kmh SSE 7.2 mph11.6 kmh 29.99 in1015.6 mb 0.00 in0.0 mm 0.00 in0.0 mm 0.00 in0.0 mm
07:04 PM 41.5°F5.3°C 39.0°F3.9°C 91% 4.9 mph SE7.9 kmh SE 6.7 mph10.8 kmh 29.99 in1015.6 mb 0.00 in0.0 mm 0.00 in0.0 mm 0.00 in0.0 mm
07:09 PM 41.5°F5.3°C 39.0°F3.9°C 91% 6.3 mph SSE10.1 kmh SSE 9.8 mph15.8 kmh 29.98 in1015.2 mb 0.00 in0.0 mm 0.00 in0.0 mm 0.00 in0.0 mm
07:14 PM 41.5°F5.3°C 38.5°F3.6°C 89% 6.0 mph S9.7 kmh S 7.6 mph12.2 kmh 29.98 in1015.2 mb 0.00 in0.0 mm 0.00 in0.0 mm 0.00 in0.0 mm
07:19 PM 41.4°F5.2°C 39.0°F3.9°C 91% 5.4 mph SSE8.7 kmh SSE 7.6 mph12.2 kmh 29.98 in1015.2 mb 0.00 in0.0 mm 0.00 in0.0 mm 0.00 in0.0 mm
07:24 PM 41.4°F5.2°C 39.0°F3.9°C 91% 4.5 mph SSE7.2 kmh SSE 8.3 mph13.4 kmh 29.98 in1015.2 mb 0.00 in0.0 mm 0.00 in0.0 mm 0.00 in0.0 mm
07:29 PM 41.4°F5.2°C 39.0°F3.9°C 91% 3.6 mph S5.8 kmh S 4.7 mph7.6 kmh 29.98 in1015.2 mb 0.00 in0.0 mm 0.00 in0.0 mm 0.00 in0.0 mm
07:34 PM 41.4°F5.2°C 39.0°F3.9°C 91% 4.7 mph S7.6 kmh S 7.6 mph12.2 kmh 29.97 in1014.9 mb 0.00 in0.0 mm 0.00 in0.0 mm 0.00 in0.0 mm
07:39 PM 41.4°F5.2°C 39.0°F3.9°C 91% 5.6 mph S9.0 kmh S 8.1 mph13.0 kmh 29.97 in1014.9 mb 0.00 in0.0 mm 0.00 in0.0 mm 0.00 in0.0 mm
07:44 PM 41.2°F5.1°C 38.8°F3.8°C 91% 5.1 mph SSE8.2 kmh SSE 7.2 mph11.6 kmh 29.97 in1014.9 mb 0.00 in0.0 mm 0.00 in0.0 mm 0.00 in0.0 mm
07:49 PM 41.2°F5.1°C 38.8°F3.8°C 91% 4.0 mph SSE6.4 kmh SSE 6.0 mph9.7 kmh 29.97 in1014.9 mb 0.00 in0.0 mm 0.00 in0.0 mm 0.00 in0.0 mm
07:54 PM 41.2°F5.1°C 39.0°F3.9°C 92% 3.1 mph SSE5.0 kmh SSE 5.4 mph8.7 kmh 29.96 in1014.6 mb 0.00 in0.0 mm 0.00 in0.0 mm 0.00 in0.0 mm
07:59 PM 41.2°F5.1°C 39.0°F3.9°C 92% 4.0 mph S6.4 kmh S 5.4 mph8.7 kmh 29.96 in1014.6 mb 0.00 in0.0 mm 0.00 in0.0 mm 0.00 in0.0 mm
08:04 PM 41.2°F5.1°C 39.0°F3.9°C 92% 3.4 mph SE5.5 kmh SE 5.1 mph8.2 kmh 29.97 in1014.9 mb 0.00 in0.0 mm 0.00 in0.0 mm 0.00 in0.0 mm
08:09 PM 41.2°F5.1°C 39.0°F3.9°C 92% 3.8 mph SSE6.1 kmh SSE 6.0 mph9.7 kmh 29.96 in1014.6 mb 0.00 in0.0 mm 0.00 in0.0 mm 0.00 in0.0 mm
08:14 PM 41.2°F5.1°C 39.0°F3.9°C 92% 4.3 mph SSE6.9 kmh SSE 6.3 mph10.1 kmh 29.96 in1014.6 mb 0.00 in0.0 mm 0.00 in0.0 mm 0.00 in0.0 mm
08:19 PM 41.2°F5.1°C 39.0°F3.9°C 92% 5.8 mph SSE9.3 kmh SSE 8.1 mph13.0 kmh 29.96 in1014.6 mb 0.00 in0.0 mm 0.00 in0.0 mm 0.00 in0.0 mm
08:24 PM 41.2°F5.1°C 39.0°F3.9°C 92% 3.1 mph SSE5.0 kmh SSE 4.5 mph7.2 kmh 29.95 in1014.2 mb 0.00 in0.0 mm 0.00 in0.0 mm 0.00 in0.0 mm
08:29 PM 41.2°F5.1°C 39.0°F3.9°C 92% 3.4 mph SSE5.5 kmh SSE 6.3 mph10.1 kmh 29.94 in1013.9 mb 0.00 in0.0 mm 0.00 in0.0 mm 0.00 in0.0 mm
08:34 PM 41.2°F5.1°C 39.0°F3.9°C 92% 2.9 mph S4.7 kmh S 4.3 mph6.9 kmh 29.94 in1013.9 mb 0.00 in0.0 mm 0.00 in0.0 mm 0.00 in0.0 mm
08:39 PM 41.2°F5.1°C 39.0°F3.9°C 92% 3.8 mph S6.1 kmh S 4.9 mph7.9 kmh 29.95 in1014.2 mb 0.00 in0.0 mm 0.00 in0.0 mm 0.00 in0.0 mm
08:44 PM 41.2°F5.1°C 39.0°F3.9°C 92% 3.6 mph S5.8 kmh S 5.1 mph8.2 kmh 29.94 in1013.9 mb 0.00 in0.0 mm 0.00 in0.0 mm 0.00 in0.0 mm
08:49 PM 41.2°F5.1°C 39.0°F3.9°C 92% 4.9 mph S7.9 kmh S 8.1 mph13.0 kmh 29.94 in1013.9 mb 0.00 in0.0 mm 0.00 in0.0 mm 0.00 in0.0 mm
08:54 PM 41.2°F5.1°C 39.0°F3.9°C 92% 6.0 mph S9.7 kmh S 9.4 mph15.1 kmh 29.93 in1013.5 mb 0.00 in0.0 mm 0.00 in0.0 mm 0.00 in0.0 mm
08:59 PM 41.2°F5.1°C 39.4°F4.1°C 93% 3.4 mph SSE5.5 kmh SSE 4.7 mph7.6 kmh 29.93 in1013.5 mb 0.00 in0.0 mm 0.00 in0.0 mm 0.00 in0.0 mm
09:04 PM 41.4°F5.2°C 39.6°F4.2°C 93% 2.9 mph SSE4.7 kmh SSE 3.6 mph5.8 kmh 29.92 in1013.2 mb 0.00 in0.0 mm 0.00 in0.0 mm 0.00 in0.0 mm
09:09 PM 41.4°F5.2°C 39.2°F4.0°C 92% 4.7 mph SSE7.6 kmh SSE 6.3 mph10.1 kmh 29.91 in1012.9 mb 0.00 in0.0 mm 0.00 in0.0 mm 0.00 in0.0 mm
09:14 PM 41.2°F5.1°C 39.0°F3.9°C 92% 2.9 mph SE4.7 kmh SE 5.6 mph9.0 kmh 29.91 in1012.9 mb 0.00 in0.0 mm 0.00 in0.0 mm 0.00 in0.0 mm
09:19 PM 41.2°F5.1°C 39.4°F4.1°C 93% 3.1 mph SSE5.0 kmh SSE 4.9 mph7.9 kmh 29.91 in1012.9 mb 0.00 in0.0 mm 0.00 in0.0 mm 0.00 in0.0 mm
09:24 PM 41.2°F5.1°C 39.4°F4.1°C 93% 4.5 mph SSE7.2 kmh SSE 7.8 mph12.6 kmh 29.91 in1012.9 mb 0.00 in0.0 mm 0.00 in0.0 mm 0.00 in0.0 mm
09:29 PM 41.2°F5.1°C 39.4°F4.1°C 93% 4.5 mph S7.2 kmh S 7.2 mph11.6 kmh 29.90 in1012.5 mb 0.00 in0.0 mm 0.00 in0.0 mm 0.00 in0.0 mm
09:34 PM 41.2°F5.1°C 39.4°F4.1°C 93% 2.9 mph S4.7 kmh S 4.7 mph7.6 kmh 29.90 in1012.5 mb 0.00 in0.0 mm 0.00 in0.0 mm 0.00 in0.0 mm
09:39 PM 41.2°F5.1°C 39.4°F4.1°C 93% 3.8 mph SSE6.1 kmh SSE 5.4 mph8.7 kmh 29.90 in1012.5 mb 0.00 in0.0 mm 0.00 in0.0 mm 0.00 in0.0 mm
09:44 PM 41.2°F5.1°C 39.4°F4.1°C 93% 4.3 mph S6.9 kmh S 5.6 mph9.0 kmh 29.90 in1012.5 mb 0.00 in0.0 mm 0.00 in0.0 mm 0.00 in0.0 mm
09:49 PM 41.2°F5.1°C 39.4°F4.1°C 93% 4.0 mph SSE6.4 kmh SSE 5.4 mph8.7 kmh 29.89 in1012.2 mb 0.00 in0.0 mm 0.00 in0.0 mm 0.00 in0.0 mm
09:54 PM 41.2°F5.1°C 39.4°F4.1°C 93% 4.5 mph S7.2 kmh S 6.7 mph10.8 kmh 29.89 in1012.2 mb 0.00 in0.0 mm 0.00 in0.0 mm 0.00 in0.0 mm
09:59 PM 41.2°F5.1°C 39.6°F4.2°C 94% 3.8 mph SSE6.1 kmh SSE 5.6 mph9.0 kmh 29.88 in1011.9 mb 0.00 in0.0 mm 0.00 in0.0 mm 0.00 in0.0 mm
10:04 PM 41.2°F5.1°C 39.6°F4.2°C 94% 4.3 mph SE6.9 kmh SE 6.0 mph9.7 kmh 29.88 in1011.9 mb 0.00 in0.0 mm 0.00 in0.0 mm 0.00 in0.0 mm
10:09 PM 41.4°F5.2°C 39.6°F4.2°C 93% 4.3 mph SSE6.9 kmh SSE 7.2 mph11.6 kmh 29.87 in1011.5 mb 0.00 in0.0 mm 0.00 in0.0 mm 0.00 in0.0 mm
10:14 PM 41.4°F5.2°C 39.6°F4.2°C 93% 4.0 mph SSE6.4 kmh SSE 5.8 mph9.3 kmh 29.87 in1011.5 mb 0.00 in0.0 mm 0.00 in0.0 mm 0.00 in0.0 mm
10:19 PM 41.4°F5.2°C 39.7°F4.3°C 94% 4.0 mph SSE6.4 kmh SSE 5.8 mph9.3 kmh 29.86 in1011.2 mb 0.00 in0.0 mm 0.00 in0.0 mm 0.00 in0.0 mm
10:24 PM 41.4°F5.2°C 39.7°F4.3°C 94% 5.1 mph S8.2 kmh S 6.9 mph11.1 kmh 29.85 in1010.8 mb 0.00 in0.0 mm 0.00 in0.0 mm 0.00 in0.0 mm
10:29 PM 41.5°F5.3°C 39.9°F4.4°C 94% 5.4 mph S8.7 kmh S 7.6 mph12.2 kmh 29.85 in1010.8 mb 0.00 in0.0 mm 0.00 in0.0 mm 0.00 in0.0 mm
10:34 PM 41.4°F5.2°C 39.6°F4.2°C 93% 4.9 mph SE7.9 kmh SE 8.1 mph13.0 kmh 29.85 in1010.8 mb 0.00 in0.0 mm 0.00 in0.0 mm 0.00 in0.0 mm
10:39 PM 41.5°F5.3°C 39.7°F4.3°C 93% 4.3 mph S6.9 kmh S 7.4 mph11.9 kmh 29.84 in1010.5 mb 0.00 in0.0 mm 0.00 in0.0 mm 0.00 in0.0 mm
10:44 PM 41.5°F5.3°C 39.7°F4.3°C 93% 3.8 mph SSE6.1 kmh SSE 4.3 mph6.9 kmh 29.84 in1010.5 mb 0.00 in0.0 mm 0.00 in0.0 mm 0.00 in0.0 mm
10:49 PM 41.4°F5.2°C 39.6°F4.2°C 93% 3.8 mph S6.1 kmh S 5.8 mph9.3 kmh 29.83 in1010.2 mb 0.00 in0.0 mm 0.00 in0.0 mm 0.00 in0.0 mm
10:54 PM 41.4°F5.2°C 39.6°F4.2°C 93% 4.7 mph S7.6 kmh S 6.7 mph10.8 kmh 29.82 in1009.8 mb 0.00 in0.0 mm 0.00 in0.0 mm 0.00 in0.0 mm
10:59 PM 41.4°F5.2°C 39.6°F4.2°C 93% 4.3 mph S6.9 kmh S 6.3 mph10.1 kmh 29.82 in1009.8 mb 0.00 in0.0 mm 0.00 in0.0 mm 0.00 in0.0 mm
11:04 PM 41.4°F5.2°C 39.6°F4.2°C 93% 6.3 mph S10.1 kmh S 9.8 mph15.8 kmh 29.81 in1009.5 mb 0.00 in0.0 mm 0.00 in0.0 mm 0.00 in0.0 mm
11:09 PM 41.4°F5.2°C 39.6°F4.2°C 93% 5.6 mph S9.0 kmh S 8.7 mph14.0 kmh 29.81 in1009.5 mb 0.00 in0.0 mm 0.00 in0.0 mm 0.00 in0.0 mm
11:14 PM 41.4°F5.2°C 39.6°F4.2°C 93% 5.1 mph S8.2 kmh S 6.7 mph10.8 kmh 29.81 in1009.5 mb 0.00 in0.0 mm 0.00 in0.0 mm 0.00 in0.0 mm
11:19 PM 41.4°F5.2°C 39.6°F4.2°C 93% 5.6 mph SSE9.0 kmh SSE 8.5 mph13.7 kmh 29.80 in1009.1 mb 0.00 in0.0 mm 0.00 in0.0 mm 0.00 in0.0 mm
11:24 PM 41.4°F5.2°C 39.6°F4.2°C 93% 4.9 mph SSE7.9 kmh SSE 7.4 mph11.9 kmh 29.79 in1008.8 mb 0.00 in0.0 mm 0.00 in0.0 mm 0.00 in0.0 mm
11:29 PM 41.4°F5.2°C 39.6°F4.2°C 93% 5.4 mph SE8.7 kmh SE 8.3 mph13.4 kmh 29.78 in1008.5 mb 0.00 in0.0 mm 0.00 in0.0 mm 0.00 in0.0 mm
11:34 PM 41.5°F5.3°C 39.4°F4.1°C 92% 5.6 mph SSE9.0 kmh SSE 8.9 mph14.3 kmh 29.78 in1008.5 mb 0.00 in0.0 mm 0.00 in0.0 mm 0.00 in0.0 mm
11:39 PM 41.5°F5.3°C 39.4°F4.1°C 92% 4.9 mph S7.9 kmh S 6.9 mph11.1 kmh 29.78 in1008.5 mb 0.00 in0.0 mm 0.00 in0.0 mm 0.00 in0.0 mm
11:44 PM 41.7°F5.4°C 39.6°F4.2°C 92% 5.1 mph SSE8.2 kmh SSE 9.6 mph15.4 kmh 29.78 in1008.5 mb 0.00 in0.0 mm 0.00 in0.0 mm 0.00 in0.0 mm
11:49 PM 41.9°F5.5°C 39.7°F4.3°C 92% 4.3 mph SE6.9 kmh SE 5.6 mph9.0 kmh 29.76 in1007.8 mb 0.00 in0.0 mm 0.00 in0.0 mm 0.00 in0.0 mm
11:54 PM 41.9°F5.5°C 39.7°F4.3°C 92% 3.4 mph S5.5 kmh S 5.6 mph9.0 kmh 29.76 in1007.8 mb 0.00 in0.0 mm 0.00 in0.0 mm 0.00 in0.0 mm
11:59 PM 41.9°F5.5°C 39.7°F4.3°C 92% 4.5 mph SSE7.2 kmh SSE 7.4 mph11.9 kmh 29.77 in1008.1 mb 0.00 in0.0 mm 0.00 in0.0 mm 0.00 in0.0 mm